Atago — JD3488 — position and weather

sailwx.info

Track history (hours):
 
Tides and Currents Weather Stations Pressure Air Temp Water Temp Dewpoint Dewpoint Depression Visibility Wind Speed Wind Dir Waves Ship Positions

Atago

Last reported at 2018-Jul-23 06:30 UTC. Time now 2018-Jul-23 07:21 UTC.
Position N 34°38' E 135°29'.

Length 61 m; draft 3.5 m.

Type: Tanker. MMSI: 431004325.

Date/timePositionNaut miles runAvg speedWind from/ knotsBaromVisibWave heightAir tempDewpointWater temp
2018-Jul-23 06:30N 34°38' E 135°29'4 7.2
2018-Jul-23 06:00N 34°40' E 135°25'0 0.8
2018-Jul-23 05:31N 34°40' E 135°25'0 0.0
2018-Jul-23 05:00N 34°40' E 135°25'0 0.0
2018-Jul-23 04:30N 34°40' E 135°25'0 0.0
2018-Jul-23 04:00N 34°40' E 135°25'0 0.0
2018-Jul-23 03:29N 34°40' E 135°25'0 0.0
2018-Jul-23 02:58N 34°40' E 135°25'0 0.0
2018-Jul-23 02:28N 34°40' E 135°25'0 0.0
2018-Jul-23 02:00N 34°40' E 135°25'0 0.0
2018-Jul-23 01:30N 34°40' E 135°25'0 0.0
2018-Jul-23 00:58N 34°40' E 135°25'0 0.5
2018-Jul-23 00:30N 34°40' E 135°25'0 0.1
2018-Jul-23 00:00N 34°40' E 135°25'1 2.6
2018-Jul-22 23:30N 34°39' E 135°25'3 5.8
2018-Jul-22 23:00N 34°38' E 135°29'0 0.0
2018-Jul-22 22:27N 34°38' E 135°29'0 0.0
2018-Jul-22 21:10N 34°38' E 135°29'0 0.0
2018-Jul-22 20:36N 34°38' E 135°29'0 0.0
2018-Jul-22 20:28N 34°38' E 135°29'0 0.0
2018-Jul-22 19:58N 34°38' E 135°29'0 0.0
2018-Jul-22 19:29N 34°38' E 135°29'0 0.0
2018-Jul-22 18:59N 34°38' E 135°29'0 0.0
2018-Jul-22 18:30N 34°38' E 135°29'0 0.0
2018-Jul-22 18:00N 34°38' E 135°29'0 0.0
2018-Jul-22 17:29N 34°38' E 135°29'0 0.0
2018-Jul-22 17:00N 34°38' E 135°29'0 0.0
2018-Jul-22 16:30N 34°38' E 135°29'0 0.0
2018-Jul-22 15:59N 34°38' E 135°29'0 0.0
2018-Jul-22 15:00N 34°38' E 135°29'0 0.1
2018-Jul-22 14:17N 34°38' E 135°29'0 0.2
2018-Jul-22 13:59N 34°38' E 135°29'0 0.0
2018-Jul-22 13:29N 34°38' E 135°29'0 0.0
2018-Jul-22 13:00N 34°38' E 135°29'0 0.0
2018-Jul-22 12:28N 34°38' E 135°29'0 0.0
2018-Jul-22 09:52N 34°38' E 135°29'0 0.0
2018-Jul-22 09:29N 34°38' E 135°29'0 0.0
2018-Jul-22 08:58N 34°38' E 135°29'0 0.0
2018-Jul-22 08:30N 34°38' E 135°29'0 0.0
2018-Jul-22 07:59N 34°38' E 135°29'0 0.0
2018-Jul-22 07:29N 34°38' E 135°29'0 0.0
2018-Jul-22 07:00N 34°38' E 135°29'0 0.0
2018-Jul-22 06:29N 34°38' E 135°29'0 0.0
2018-Jul-22 05:59N 34°38' E 135°29'0 0.0
2018-Jul-22 05:30N 34°38' E 135°29'1 2.1
2018-Jul-22 04:57N 34°38' E 135°28'4 9.2
2018-Jul-22 04:30N 34°38' E 135°23'611.8
2018-Jul-22 04:00N 34°34' E 135°17'612.4
2018-Jul-22 03:30N 34°29' E 135°12'612.2
2018-Jul-22 03:00N 34°25' E 135°07'612.2
2018-Jul-22 02:30N 34°20' E 135°02'510.6
2018-Jul-22 02:00N 34°15' E 134°59'611.8
2018-Jul-22 01:31N 34°10' E 135°01'612.9
2018-Jul-22 01:00N 34°03' E 135°01'612.5
2018-Jul-22 00:30N 33°57' E 135°02'211 5.7
2018-Jul-20 11:13N 34°49' E 139°09'310.5
2018-Jul-20 10:58N 34°51' E 139°11'510.0
2018-Jul-20 10:30N 34°54' E 139°15'12 9.4
2018-Jul-20 09:13N 34°60' E 139°28'2 9.1
2018-Jul-20 08:58N 35°01' E 139°30'4 9.4
2018-Jul-20 08:30N 35°03' E 139°35'510.2
2018-Jul-20 08:00N 35°06' E 139°40'510.5
2018-Jul-20 07:30N 35°10' E 139°44'510.4
2018-Jul-20 06:59N 35°15' E 139°46'511.0
2018-Jul-20 06:30N 35°20' E 139°43'510.2
2018-Jul-20 06:01N 35°25' E 139°43'510.4
2018-Jul-20 05:30N 35°29' E 139°47'3 6.2
2018-Jul-20 05:00N 35°32' E 139°46'0 0.1
2018-Jul-20 04:30N 35°32' E 139°46'0 0.0
2018-Jul-20 04:00N 35°32' E 139°46'0 0.0
2018-Jul-20 03:30N 35°32' E 139°46'0 0.0
2018-Jul-20 03:00N 35°32' E 139°46'0 0.0
2018-Jul-20 02:30N 35°32' E 139°46'0 0.0
2018-Jul-20 02:00N 35°32' E 139°46'0 0.0
2018-Jul-20 01:30N 35°32' E 139°46'0 0.0
2018-Jul-20 01:00N 35°32' E 139°46'0 0.0
2018-Jul-20 00:30N 35°32' E 139°46'2 3.1
2018-Jul-20 00:00N 35°30' E 139°47'2 4.2
2018-Jul-19 23:30N 35°29' E 139°49'0 0.0
2018-Jul-19 22:59N 35°29' E 139°49'0 0.0
2018-Jul-19 22:31N 35°29' E 139°49'3 5.4
2018-Jul-19 22:00N 35°30' E 139°46'0 0.0
2018-Jul-19 21:30N 35°30' E 139°46'0 0.0
2018-Jul-19 20:59N 35°30' E 139°46'0 0.0
2018-Jul-19 20:30N 35°30' E 139°46'0 0.0
2018-Jul-19 20:00N 35°30' E 139°46'0 0.0
2018-Jul-19 19:30N 35°30' E 139°46'0 0.0
2018-Jul-19 19:00N 35°30' E 139°46'0 0.0
2018-Jul-19 18:30N 35°30' E 139°46'0 0.0
2018-Jul-19 18:00N 35°30' E 139°46'0 0.0
2018-Jul-19 17:29N 35°30' E 139°46'0 0.0
2018-Jul-19 17:00N 35°30' E 139°46'0 0.0
2018-Jul-19 16:30N 35°30' E 139°46'0 0.0
2018-Jul-19 16:00N 35°30' E 139°46'0 0.0
2018-Jul-19 15:30N 35°30' E 139°46'0 0.0
2018-Jul-19 15:00N 35°30' E 139°46'0 0.0
2018-Jul-19 14:00N 35°30' E 139°46'0 0.0
2018-Jul-19 13:30N 35°30' E 139°46'0 0.0
2018-Jul-19 13:00N 35°30' E 139°46'0 0.0
2018-Jul-19 12:29N 35°30' E 139°46'0 0.0
2018-Jul-19 12:00N 35°30' E 139°46'0 0.0
2018-Jul-19 11:30N 35°30' E 139°46'0 0.0
2018-Jul-19 10:59N 35°30' E 139°46'0 0.0
2018-Jul-19 10:29N 35°30' E 139°46'0 0.0
2018-Jul-19 09:59N 35°30' E 139°46'0 0.0
2018-Jul-19 09:29N 35°30' E 139°46'0 0.0
2018-Jul-19 09:00N 35°30' E 139°46'0 0.0
2018-Jul-19 08:30N 35°30' E 139°46'0 0.0
2018-Jul-19 07:59N 35°30' E 139°46'0 0.0
2018-Jul-19 07:29N 35°30' E 139°46'0 0.0
2018-Jul-19 06:50N 35°30' E 139°46'0 0.0
2018-Jul-19 06:30N 35°30' E 139°46'0 0.0
2018-Jul-19 06:00N 35°30' E 139°46'0 0.0
2018-Jul-19 05:27N 35°30' E 139°46'0 0.0
2018-Jul-19 05:00N 35°30' E 139°46'0 0.0
2018-Jul-19 04:29N 35°30' E 139°46'0 0.0
2018-Jul-19 04:01N 35°30' E 139°46'0 0.0
2018-Jul-19 03:30N 35°30' E 139°46'0 0.0
2018-Jul-19 02:58N 35°30' E 139°46'0 0.0
2018-Jul-19 02:30N 35°30' E 139°46'0 0.0
2018-Jul-19 02:00N 35°30' E 139°46'0 0.0
2018-Jul-19 01:27N 35°30' E 139°46'0 0.0
2018-Jul-19 00:59N 35°30' E 139°46'0 0.0
2018-Jul-19 00:28N 35°30' E 139°46'0 0.0
2018-Jul-18 23:56N 35°30' E 139°46'0 0.0
2018-Jul-18 23:30N 35°30' E 139°46'0 0.0
2018-Jul-18 23:00N 35°30' E 139°46'0 0.0
2018-Jul-18 22:30N 35°30' E 139°46'0 0.0
2018-Jul-18 22:00N 35°30' E 139°46'0 0.0
2018-Jul-18 21:29N 35°30' E 139°46'0 0.0
2018-Jul-18 20:57N 35°30' E 139°46'0 0.0
2018-Jul-18 20:30N 35°30' E 139°46'0 0.0
2018-Jul-18 19:59N 35°30' E 139°46'0 0.0
2018-Jul-18 19:30N 35°30' E 139°46'0 0.0
2018-Jul-18 19:00N 35°30' E 139°46'0 0.0
2018-Jul-18 18:29N 35°30' E 139°46'0 0.0
2018-Jul-18 18:00N 35°30' E 139°46'0 0.0
2018-Jul-18 17:30N 35°30' E 139°46'0 0.0
2018-Jul-18 16:58N 35°30' E 139°46'0 0.0
2018-Jul-18 16:30N 35°30' E 139°46'0 0.0
2018-Jul-18 16:00N 35°30' E 139°46'0 0.0
2018-Jul-18 15:30N 35°30' E 139°46'0 0.0
2018-Jul-18 14:58N 35°30' E 139°46'0 0.0
2018-Jul-18 14:30N 35°30' E 139°46'0 0.0
2018-Jul-18 13:28N 35°30' E 139°46'0 0.0
2018-Jul-18 12:59N 35°30' E 139°46'0 0.0
2018-Jul-18 12:30N 35°30' E 139°46'0 0.0
2018-Jul-18 12:00N 35°30' E 139°46'0 0.0
2018-Jul-18 11:30N 35°30' E 139°46'0 0.0
2018-Jul-18 10:30N 35°30' E 139°46'0 0.0
2018-Jul-18 10:00N 35°30' E 139°46'0 0.0
2018-Jul-18 09:30N 35°30' E 139°46'0 0.0
2018-Jul-18 09:00N 35°30' E 139°46'0 0.0
2018-Jul-18 08:30N 35°30' E 139°46'0 0.0
2018-Jul-18 08:00N 35°30' E 139°46'0 0.0
2018-Jul-18 07:24N 35°30' E 139°46'0 1.2
2018-Jul-18 07:00N 35°30' E 139°47'2 4.6
2018-Jul-18 06:30N 35°29' E 139°49'0 0.0
2018-Jul-18 06:00N 35°29' E 139°49'0 0.0
2018-Jul-18 05:30N 35°29' E 139°49'4 7.6
2018-Jul-18 05:01N 35°32' E 139°45'0 0.1
2018-Jul-18 04:30N 35°32' E 139°45'0 0.0
2018-Jul-18 04:00N 35°32' E 139°45'0 0.0
2018-Jul-18 03:30N 35°32' E 139°45'0 0.0
2018-Jul-18 03:00N 35°32' E 139°45'0 0.0
2018-Jul-18 02:30N 35°32' E 139°45'0 0.0
2018-Jul-18 02:00N 35°32' E 139°45'0 0.0
2018-Jul-18 01:25N 35°32' E 139°45'0 0.0
2018-Jul-18 01:00N 35°32' E 139°45'0 0.0
2018-Jul-18 00:30N 35°32' E 139°45'0 0.0
2018-Jul-18 00:00N 35°32' E 139°45'0 0.0
2018-Jul-17 23:30N 35°32' E 139°45'2 3.4
2018-Jul-17 23:00N 35°30' E 139°47'2 4.5
2018-Jul-17 22:30N 35°29' E 139°49'0 0.0
2018-Jul-17 21:56N 35°29' E 139°49'0 0.0
2018-Jul-17 21:30N 35°29' E 139°49'0 0.0
2018-Jul-17 21:00N 35°29' E 139°49'0 0.0
2018-Jul-17 20:30N 35°29' E 139°49'0 0.0
2018-Jul-17 20:00N 35°29' E 139°49'0 0.1
2018-Jul-17 19:30N 35°29' E 139°49'0 0.0
2018-Jul-17 19:00N 35°29' E 139°49'0 0.0
2018-Jul-17 18:31N 35°29' E 139°49'0 0.0
2018-Jul-17 18:00N 35°29' E 139°49'0 0.1
2018-Jul-17 17:30N 35°29' E 139°49'2 4.4
2018-Jul-17 17:00N 35°27' E 139°48'611.3
2018-Jul-17 16:30N 35°22' E 139°45'510.1
2018-Jul-17 16:00N 35°17' E 139°46'610.9
2018-Jul-17 15:30N 35°11' E 139°47'611.6
2018-Jul-17 15:00N 35°06' E 139°46'611.8
2018-Jul-17 14:30N 35°01' E 139°41'612.7
2018-Jul-17 14:00N 34°58' E 139°34'23310.4
2018-Jul-16 15:36N 33°49' E 135°04'211.5
2018-Jul-16 15:28N 33°50' E 135°03'510.6
2018-Jul-16 15:00N 33°55' E 135°01'611.1
2018-Jul-16 14:30N 34°00' E 135°01'510.8
2018-Jul-16 14:00N 34°05' E 134°60'510.3
2018-Jul-16 13:30N 34°11' E 135°00'5 9.6
2018-Jul-16 13:00N 34°15' E 134°59'4 7.9
2018-Jul-16 12:30N 34°19' E 134°59'510.0
2018-Jul-16 12:00N 34°24' E 135°01'5 9.3
2018-Jul-16 11:30N 34°29' E 135°02'5 9.4
2018-Jul-16 11:00N 34°33' E 135°03'4 8.3
2018-Jul-16 10:31N 34°37' E 135°00'711.7
2018-Jul-16 09:55N 34°35' E 134°53'512.1
2018-Jul-16 09:29N 34°32' E 134°47'612.0
2018-Jul-16 09:00N 34°30' E 134°40'611.8
2018-Jul-16 08:30N 34°28' E 134°34'611.6
2018-Jul-16 08:00N 34°26' E 134°27'611.7
2018-Jul-16 07:29N 34°24' E 134°20'712.7
2018-Jul-16 06:57N 34°24' E 134°12'  
Track history (hours):
 
Tides and Currents Weather Stations Pressure Air Temp Water Temp Dewpoint Dewpoint Depression Visibility Wind Speed Wind Dir Waves Ship Positions

Atago

Last reported at 2018-Jul-23 06:30 UTC. Time now 2018-Jul-23 07:21 UTC.
Position N 34°38' E 135°29'.

Length 61 m; draft 3.5 m.

Type: Tanker. MMSI: 431004325.

Date/timePositionNaut miles runAvg speedWind from/ knotsBaromVisibWave heightAir tempDewpointWater temp
2018-Jul-23 06:30N 34°38' E 135°29'4 7.2
2018-Jul-23 06:00N 34°40' E 135°25'0 0.8
2018-Jul-23 05:31N 34°40' E 135°25'0 0.0
2018-Jul-23 05:00N 34°40' E 135°25'0 0.0
2018-Jul-23 04:30N 34°40' E 135°25'0 0.0
2018-Jul-23 04:00N 34°40' E 135°25'0 0.0
2018-Jul-23 03:29N 34°40' E 135°25'0 0.0
2018-Jul-23 02:58N 34°40' E 135°25'0 0.0
2018-Jul-23 02:28N 34°40' E 135°25'0 0.0
2018-Jul-23 02:00N 34°40' E 135°25'0 0.0
2018-Jul-23 01:30N 34°40' E 135°25'0 0.0
2018-Jul-23 00:58N 34°40' E 135°25'0 0.5
2018-Jul-23 00:30N 34°40' E 135°25'0 0.1
2018-Jul-23 00:00N 34°40' E 135°25'1 2.6
2018-Jul-22 23:30N 34°39' E 135°25'3 5.8
2018-Jul-22 23:00N 34°38' E 135°29'0 0.0
2018-Jul-22 22:27N 34°38' E 135°29'0 0.0
2018-Jul-22 21:10N 34°38' E 135°29'0 0.0
2018-Jul-22 20:36N 34°38' E 135°29'0 0.0
2018-Jul-22 20:28N 34°38' E 135°29'0 0.0
2018-Jul-22 19:58N 34°38' E 135°29'0 0.0
2018-Jul-22 19:29N 34°38' E 135°29'0 0.0
2018-Jul-22 18:59N 34°38' E 135°29'0 0.0
2018-Jul-22 18:30N 34°38' E 135°29'0 0.0
2018-Jul-22 18:00N 34°38' E 135°29'0 0.0
2018-Jul-22 17:29N 34°38' E 135°29'0 0.0
2018-Jul-22 17:00N 34°38' E 135°29'0 0.0
2018-Jul-22 16:30N 34°38' E 135°29'0 0.0
2018-Jul-22 15:59N 34°38' E 135°29'0 0.0
2018-Jul-22 15:00N 34°38' E 135°29'0 0.1
2018-Jul-22 14:17N 34°38' E 135°29'0 0.2
2018-Jul-22 13:59N 34°38' E 135°29'0 0.0
2018-Jul-22 13:29N 34°38' E 135°29'0 0.0
2018-Jul-22 13:00N 34°38' E 135°29'0 0.0
2018-Jul-22 12:28N 34°38' E 135°29'0 0.0
2018-Jul-22 09:52N 34°38' E 135°29'0 0.0
2018-Jul-22 09:29N 34°38' E 135°29'0 0.0
2018-Jul-22 08:58N 34°38' E 135°29'0 0.0
2018-Jul-22 08:30N 34°38' E 135°29'0 0.0
2018-Jul-22 07:59N 34°38' E 135°29'0 0.0
2018-Jul-22 07:29N 34°38' E 135°29'0 0.0
2018-Jul-22 07:00N 34°38' E 135°29'0 0.0
2018-Jul-22 06:29N 34°38' E 135°29'0 0.0
2018-Jul-22 05:59N 34°38' E 135°29'0 0.0
2018-Jul-22 05:30N 34°38' E 135°29'1 2.1
2018-Jul-22 04:57N 34°38' E 135°28'4 9.2
2018-Jul-22 04:30N 34°38' E 135°23'611.8
2018-Jul-22 04:00N 34°34' E 135°17'612.4
2018-Jul-22 03:30N 34°29' E 135°12'612.2
2018-Jul-22 03:00N 34°25' E 135°07'612.2
2018-Jul-22 02:30N 34°20' E 135°02'510.6
2018-Jul-22 02:00N 34°15' E 134°59'611.8
2018-Jul-22 01:31N 34°10' E 135°01'612.9
2018-Jul-22 01:00N 34°03' E 135°01'612.5
2018-Jul-22 00:30N 33°57' E 135°02'211 5.7
2018-Jul-20 11:13N 34°49' E 139°09'310.5
2018-Jul-20 10:58N 34°51' E 139°11'510.0
2018-Jul-20 10:30N 34°54' E 139°15'12 9.4
2018-Jul-20 09:13N 34°60' E 139°28'2 9.1
2018-Jul-20 08:58N 35°01' E 139°30'4 9.4
2018-Jul-20 08:30N 35°03' E 139°35'510.2
2018-Jul-20 08:00N 35°06' E 139°40'510.5
2018-Jul-20 07:30N 35°10' E 139°44'510.4
2018-Jul-20 06:59N 35°15' E 139°46'511.0
2018-Jul-20 06:30N 35°20' E 139°43'510.2
2018-Jul-20 06:01N 35°25' E 139°43'510.4
2018-Jul-20 05:30N 35°29' E 139°47'3 6.2
2018-Jul-20 05:00N 35°32' E 139°46'0 0.1
2018-Jul-20 04:30N 35°32' E 139°46'0 0.0
2018-Jul-20 04:00N 35°32' E 139°46'0 0.0
2018-Jul-20 03:30N 35°32' E 139°46'0 0.0
2018-Jul-20 03:00N 35°32' E 139°46'0 0.0
2018-Jul-20 02:30N 35°32' E 139°46'0 0.0
2018-Jul-20 02:00N 35°32' E 139°46'0 0.0
2018-Jul-20 01:30N 35°32' E 139°46'0 0.0
2018-Jul-20 01:00N 35°32' E 139°46'0 0.0
2018-Jul-20 00:30N 35°32' E 139°46'2 3.1
2018-Jul-20 00:00N 35°30' E 139°47'2 4.2
2018-Jul-19 23:30N 35°29' E 139°49'0 0.0
2018-Jul-19 22:59N 35°29' E 139°49'0 0.0
2018-Jul-19 22:31N 35°29' E 139°49'3 5.4
2018-Jul-19 22:00N 35°30' E 139°46'0 0.0
2018-Jul-19 21:30N 35°30' E 139°46'0 0.0
2018-Jul-19 20:59N 35°30' E 139°46'0 0.0
2018-Jul-19 20:30N 35°30' E 139°46'0 0.0
2018-Jul-19 20:00N 35°30' E 139°46'0 0.0
2018-Jul-19 19:30N 35°30' E 139°46'0 0.0
2018-Jul-19 19:00N 35°30' E 139°46'0 0.0
2018-Jul-19 18:30N 35°30' E 139°46'0 0.0
2018-Jul-19 18:00N 35°30' E 139°46'0 0.0
2018-Jul-19 17:29N 35°30' E 139°46'0 0.0
2018-Jul-19 17:00N 35°30' E 139°46'0 0.0
2018-Jul-19 16:30N 35°30' E 139°46'0 0.0
2018-Jul-19 16:00N 35°30' E 139°46'0 0.0
2018-Jul-19 15:30N 35°30' E 139°46'0 0.0
2018-Jul-19 15:00N 35°30' E 139°46'0 0.0
2018-Jul-19 14:00N 35°30' E 139°46'0 0.0
2018-Jul-19 13:30N 35°30' E 139°46'0 0.0
2018-Jul-19 13:00N 35°30' E 139°46'0 0.0
2018-Jul-19 12:29N 35°30' E 139°46'0 0.0
2018-Jul-19 12:00N 35°30' E 139°46'0 0.0
2018-Jul-19 11:30N 35°30' E 139°46'0 0.0
2018-Jul-19 10:59N 35°30' E 139°46'0 0.0
2018-Jul-19 10:29N 35°30' E 139°46'0 0.0
2018-Jul-19 09:59N 35°30' E 139°46'0 0.0
2018-Jul-19 09:29N 35°30' E 139°46'0 0.0
2018-Jul-19 09:00N 35°30' E 139°46'0 0.0
2018-Jul-19 08:30N 35°30' E 139°46'0 0.0
2018-Jul-19 07:59N 35°30' E 139°46'0 0.0
2018-Jul-19 07:29N 35°30' E 139°46'0 0.0
2018-Jul-19 06:50N 35°30' E 139°46'0 0.0
2018-Jul-19 06:30N 35°30' E 139°46'0 0.0
2018-Jul-19 06:00N 35°30' E 139°46'0 0.0
2018-Jul-19 05:27N 35°30' E 139°46'0 0.0
2018-Jul-19 05:00N 35°30' E 139°46'0 0.0
2018-Jul-19 04:29N 35°30' E 139°46'0 0.0
2018-Jul-19 04:01N 35°30' E 139°46'0 0.0
2018-Jul-19 03:30N 35°30' E 139°46'0 0.0
2018-Jul-19 02:58N 35°30' E 139°46'0 0.0
2018-Jul-19 02:30N 35°30' E 139°46'0 0.0
2018-Jul-19 02:00N 35°30' E 139°46'0 0.0
2018-Jul-19 01:27N 35°30' E 139°46'0 0.0
2018-Jul-19 00:59N 35°30' E 139°46'0 0.0
2018-Jul-19 00:28N 35°30' E 139°46'0 0.0
2018-Jul-18 23:56N 35°30' E 139°46'0 0.0
2018-Jul-18 23:30N 35°30' E 139°46'0 0.0
2018-Jul-18 23:00N 35°30' E 139°46'0 0.0
2018-Jul-18 22:30N 35°30' E 139°46'0 0.0
2018-Jul-18 22:00N 35°30' E 139°46'0 0.0
2018-Jul-18 21:29N 35°30' E 139°46'0 0.0
2018-Jul-18 20:57N 35°30' E 139°46'0 0.0
2018-Jul-18 20:30N 35°30' E 139°46'0 0.0
2018-Jul-18 19:59N 35°30' E 139°46'0 0.0
2018-Jul-18 19:30N 35°30' E 139°46'0 0.0
2018-Jul-18 19:00N 35°30' E 139°46'0 0.0
2018-Jul-18 18:29N 35°30' E 139°46'0 0.0
2018-Jul-18 18:00N 35°30' E 139°46'0 0.0
2018-Jul-18 17:30N 35°30' E 139°46'0 0.0
2018-Jul-18 16:58N 35°30' E 139°46'0 0.0
2018-Jul-18 16:30N 35°30' E 139°46'0 0.0
2018-Jul-18 16:00N 35°30' E 139°46'0 0.0
2018-Jul-18 15:30N 35°30' E 139°46'0 0.0
2018-Jul-18 14:58N 35°30' E 139°46'0 0.0
2018-Jul-18 14:30N 35°30' E 139°46'0 0.0
2018-Jul-18 13:28N 35°30' E 139°46'0 0.0
2018-Jul-18 12:59N 35°30' E 139°46'0 0.0
2018-Jul-18 12:30N 35°30' E 139°46'0 0.0
2018-Jul-18 12:00N 35°30' E 139°46'0 0.0
2018-Jul-18 11:30N 35°30' E 139°46'0 0.0
2018-Jul-18 10:30N 35°30' E 139°46'0 0.0
2018-Jul-18 10:00N 35°30' E 139°46'0 0.0
2018-Jul-18 09:30N 35°30' E 139°46'0 0.0
2018-Jul-18 09:00N 35°30' E 139°46'0 0.0
2018-Jul-18 08:30N 35°30' E 139°46'0 0.0
2018-Jul-18 08:00N 35°30' E 139°46'0 0.0
2018-Jul-18 07:24N 35°30' E 139°46'0 1.2
2018-Jul-18 07:00N 35°30' E 139°47'2 4.6
2018-Jul-18 06:30N 35°29' E 139°49'0 0.0
2018-Jul-18 06:00N 35°29' E 139°49'0 0.0
2018-Jul-18 05:30N 35°29' E 139°49'4 7.6
2018-Jul-18 05:01N 35°32' E 139°45'0 0.1
2018-Jul-18 04:30N 35°32' E 139°45'0 0.0
2018-Jul-18 04:00N 35°32' E 139°45'0 0.0
2018-Jul-18 03:30N 35°32' E 139°45'0 0.0
2018-Jul-18 03:00N 35°32' E 139°45'0 0.0
2018-Jul-18 02:30N 35°32' E 139°45'0 0.0
2018-Jul-18 02:00N 35°32' E 139°45'0 0.0
2018-Jul-18 01:25N 35°32' E 139°45'0 0.0
2018-Jul-18 01:00N 35°32' E 139°45'0 0.0
2018-Jul-18 00:30N 35°32' E 139°45'0 0.0
2018-Jul-18 00:00N 35°32' E 139°45'0 0.0
2018-Jul-17 23:30N 35°32' E 139°45'2 3.4
2018-Jul-17 23:00N 35°30' E 139°47'2 4.5
2018-Jul-17 22:30N 35°29' E 139°49'0 0.0
2018-Jul-17 21:56N 35°29' E 139°49'0 0.0
2018-Jul-17 21:30N 35°29' E 139°49'0 0.0
2018-Jul-17 21:00N 35°29' E 139°49'0 0.0
2018-Jul-17 20:30N 35°29' E 139°49'0 0.0
2018-Jul-17 20:00N 35°29' E 139°49'0 0.1
2018-Jul-17 19:30N 35°29' E 139°49'0 0.0
2018-Jul-17 19:00N 35°29' E 139°49'0 0.0
2018-Jul-17 18:31N 35°29' E 139°49'0 0.0
2018-Jul-17 18:00N 35°29' E 139°49'0 0.1
2018-Jul-17 17:30N 35°29' E 139°49'2 4.4
2018-Jul-17 17:00N 35°27' E 139°48'611.3
2018-Jul-17 16:30N 35°22' E 139°45'510.1
2018-Jul-17 16:00N 35°17' E 139°46'610.9
2018-Jul-17 15:30N 35°11' E 139°47'611.6
2018-Jul-17 15:00N 35°06' E 139°46'611.8
2018-Jul-17 14:30N 35°01' E 139°41'612.7
2018-Jul-17 14:00N 34°58' E 139°34'23310.4
2018-Jul-16 15:36N 33°49' E 135°04'211.5
2018-Jul-16 15:28N 33°50' E 135°03'510.6
2018-Jul-16 15:00N 33°55' E 135°01'611.1
2018-Jul-16 14:30N 34°00' E 135°01'510.8
2018-Jul-16 14:00N 34°05' E 134°60'510.3
2018-Jul-16 13:30N 34°11' E 135°00'5 9.6
2018-Jul-16 13:00N 34°15' E 134°59'4 7.9
2018-Jul-16 12:30N 34°19' E 134°59'510.0
2018-Jul-16 12:00N 34°24' E 135°01'5 9.3
2018-Jul-16 11:30N 34°29' E 135°02'5 9.4
2018-Jul-16 11:00N 34°33' E 135°03'4 8.3
2018-Jul-16 10:31N 34°37' E 135°00'711.7
2018-Jul-16 09:55N 34°35' E 134°53'512.1
2018-Jul-16 09:29N 34°32' E 134°47'612.0
2018-Jul-16 09:00N 34°30' E 134°40'611.8
2018-Jul-16 08:30N 34°28' E 134°34'611.6
2018-Jul-16 08:00N 34°26' E 134°27'611.7
2018-Jul-16 07:29N 34°24' E 134°20'712.7
2018-Jul-16 06:57N 34°24' E 134°12'  

Dump ship's entire track history